Terminal Aerodrome Forecast
Issued by NWS

Home | Current Version | Previous Version | Graphics & Text | Print | Product List | Glossary On
Versions: 1 2 3 4 5 6 7 8 9 10 11 12 13 14 15
784
FTUS43 KTOP 030539
TAFFOE
TAF
KFOE 030539Z 0306/0406 30013G23KT 6SM -SN OVC015
     FM030800 32017G31KT P6SM BKN015
     FM031900 32016KT P6SM SCT020
     FM040000 30008KT P6SM SKC=

USA.gov is the U.S. government's official web portal to all federal, state and local government web resources and services.